Time;durP1;ratioP1;P1;durP2;ratioP2;P2;SDS_P1;SDS_P2;PMS_P1;PMS_P2;Temp;Humidity;BMP_temperature;BMP_pressure;BME280_temperature;BME280_humidity;BME280_pressure;Samples;Min_cycle;Max_cycle;Signal;HPM_P1;HPM_P2
2021/06/01 00:01:12;;;;;;;5.40;3.70;;;;;;;13.06;51.43;99065.41;3579646;40;20057;-62
2021/06/01 00:03:39;;;;;;;4.18;3.42;;;;;;;12.97;51.92;99061.31;3580195;40;20402;-64
2021/06/01 00:06:07;;;;;;;3.60;3.30;;;;;;;12.93;52.06;99060.91;3579466;40;20088;-62
2021/06/01 00:08:34;;;;;;;6.22;3.90;;;;;;;12.94;52.16;99062.56;3579368;40;20325;-62
2021/06/01 00:11:03;;;;;;;3.97;3.60;;;;;;;13.04;51.98;99065.63;3579796;40;20052;-62
2021/06/01 00:13:30;;;;;;;5.07;3.20;;;;;;;13.05;52.05;99069.09;3580737;40;20056;-62
2021/06/01 00:15:58;;;;;;;3.95;3.25;;;;;;;13.10;52.20;99064.81;3581094;40;20025;-62
2021/06/01 00:18:25;;;;;;;4.40;3.55;;;;;;;13.09;52.16;99062.34;3580057;40;20060;-62
2021/06/01 00:20:53;;;;;;;4.95;3.47;;;;;;;13.04;52.32;99062.16;3577874;40;20049;-62
2021/06/01 00:23:20;;;;;;;4.00;3.50;;;;;;;12.95;52.47;99060.72;3578879;40;20053;-64
2021/06/01 00:25:48;;;;;;;4.07;3.40;;;;;;;12.80;52.93;99064.34;3578022;40;20060;-62
2021/06/01 00:28:16;;;;;;;6.97;3.58;;;;;;;12.72;53.18;99066.38;3577433;40;20085;-62
2021/06/01 00:30:44;;;;;;;5.35;3.33;;;;;;;12.72;53.37;99063.72;3578396;40;20053;-63
2021/06/01 00:33:11;;;;;;;8.57;4.22;;;;;;;12.69;53.46;99066.75;3578692;40;20141;-63
2021/06/01 00:35:39;;;;;;;4.15;3.75;;;;;;;12.64;53.62;99067.34;3578617;40;20072;-62
2021/06/01 00:38:06;;;;;;;4.30;3.80;;;;;;;12.53;54.02;99065.28;3579200;40;20087;-62
2021/06/01 00:40:34;;;;;;;4.90;3.95;;;;;;;12.57;54.02;99070.00;3580148;40;20130;-62
2021/06/01 00:43:01;;;;;;;4.85;3.60;;;;;;;12.56;53.86;99071.00;3580117;40;20033;-62
2021/06/01 00:45:30;;;;;;;4.70;4.07;;;;;;;12.49;54.09;99072.84;3580112;40;20060;-62
2021/06/01 00:47:57;;;;;;;4.68;3.67;;;;;;;12.37;54.69;99069.94;3579202;40;20131;-62
2021/06/01 00:50:27;;;;;;;4.55;4.13;;;;;;;12.24;54.81;99071.69;3579793;40;20029;-63
2021/06/01 00:52:59;;;;;;;4.25;3.85;;;;;;;12.16;55.38;99077.97;3579916;40;20500;-62
2021/06/01 00:55:28;;;;;;;4.10;3.70;;;;;;;12.20;55.31;99073.91;3580170;40;20045;-62
2021/06/01 00:57:55;;;;;;;16.38;4.35;;;;;;;12.25;55.22;99076.00;3578585;40;20085;-62
2021/06/01 01:00:41;;;;;;;5.50;3.92;;;;;;;12.29;55.10;99077.22;3580342;40;20029;-63
2021/06/01 01:03:10;;;;;;;4.28;3.88;;;;;;;12.26;55.20;99078.44;3579929;40;20059;-62
2021/06/01 01:05:39;;;;;;;4.53;3.88;;;;;;;12.21;55.10;99080.03;3580263;40;20053;-63
2021/06/01 01:08:32;;;;;;;4.68;4.28;;;;;;;12.04;55.70;99077.72;3579752;40;20314;-62
2021/06/01 01:11:02;;;;;;;4.45;3.55;;;;;;;11.89;55.71;99077.81;3578882;40;20100;-62
2021/06/01 01:13:36;;;;;;;4.25;3.85;;;;;;;11.82;56.17;99074.28;3579931;40;20088;-62
2021/06/01 01:16:06;;;;;;;4.95;4.32;;;;;;;11.70;56.44;99073.16;3580165;40;20037;-62
2021/06/01 01:18:36;;;;;;;5.35;3.78;;;;;;;11.66;56.54;99072.72;3578598;40;20056;-62
2021/06/01 01:21:13;;;;;;;4.32;3.72;;;;;;;11.69;56.58;99078.66;3579801;40;20084;-62
2021/06/01 01:23:48;;;;;;;6.50;4.28;;;;;;;11.59;56.53;99079.84;3580181;40;20072;-63
2021/06/01 01:26:26;;;;;;;4.50;4.10;;;;;;;11.63;56.44;99075.78;3578874;40;20325;-62
2021/06/01 01:29:01;;;;;;;4.32;3.95;;;;;;;11.60;56.47;99076.16;3579610;40;20088;-62
2021/06/01 01:31:40;;;;;;;5.20;4.70;;;;;;;11.58;56.76;99077.34;3579613;40;20092;-62
2021/06/01 01:34:10;;;;;;;5.03;4.53;;;;;;;11.55;56.60;99086.53;3580164;40;20033;-62
2021/06/01 01:36:38;;;;;;;9.13;4.65;;;;;;;11.50;57.07;99086.25;3579911;40;20025;-62
2021/06/01 01:39:08;;;;;;;5.70;4.45;;;;;;;11.40;57.31;99080.47;3579430;40;20044;-61
2021/06/01 01:41:37;;;;;;;5.22;4.03;;;;;;;11.37;57.37;99086.97;3579787;40;20045;-62
2021/06/01 01:44:10;;;;;;;4.82;4.32;;;;;;;11.41;57.59;99084.75;3579818;40;20049;-62
2021/06/01 01:46:53;;;;;;;5.18;4.05;;;;;;;11.44;57.69;99080.91;3579619;40;20061;-61
2021/06/01 01:49:26;;;;;;;5.03;4.43;;;;;;;11.46;57.59;99081.53;3579016;40;20110;-62
2021/06/01 01:51:57;;;;;;;6.43;4.00;;;;;;;11.49;57.60;99075.88;3579987;40;20036;-63
2021/06/01 01:54:29;;;;;;;5.20;4.70;;;;;;;11.53;57.55;99088.53;3579503;40;20057;-62
2021/06/01 01:57:07;;;;;;;4.38;3.97;;;;;;;11.47;57.47;99089.31;3579257;40;20049;-62
2021/06/01 01:59:35;;;;;;;5.47;4.97;;;;;;;11.41;57.79;99085.56;3579521;40;20072;-62
2021/06/01 02:02:08;;;;;;;4.68;4.28;;;;;;;11.34;57.81;99075.94;3579426;40;20066;-62
2021/06/01 02:04:49;;;;;;;4.13;3.78;;;;;;;11.27;58.37;99077.72;3580413;40;20073;-62
2021/06/01 02:07:16;;;;;;;4.80;4.28;;;;;;;11.24;58.05;99080.75;3580157;40;20143;-62
2021/06/01 02:09:49;;;;;;;5.45;4.78;;;;;;;11.12;58.20;99081.25;3579748;40;20295;-62
2021/06/01 02:12:17;;;;;;;5.40;4.90;;;;;;;11.00;58.52;99082.75;3583026;40;20057;-63
2021/06/01 02:14:44;;;;;;;5.57;4.60;;;;;;;10.92;58.75;99080.22;3584700;40;20056;-62
2021/06/01 02:17:11;;;;;;;5.35;4.95;;;;;;;10.89;58.93;99083.25;3582782;40;20088;-62
2021/06/01 02:19:38;;;;;;;5.70;4.78;;;;;;;10.85;59.08;99076.69;3580549;40;20402;-62
2021/06/01 02:22:22;;;;;;;8.38;5.35;;;;;;;10.73;59.48;99081.66;3580956;40;20060;-62
2021/06/01 02:24:54;;;;;;;5.72;5.15;;;;;;;10.70;59.51;99082.03;3581780;40;20057;-62
2021/06/01 02:27:26;;;;;;;7.78;4.80;;;;;;;10.71;59.58;99085.50;3579826;40;20072;-62
2021/06/01 02:30:03;;;;;;;6.28;5.65;;;;;;;10.61;59.84;99073.41;3579323;40;20041;-62
2021/06/01 02:32:35;;;;;;;6.25;4.75;;;;;;;10.59;59.92;99088.63;3579388;40;20053;-62
2021/06/01 02:35:07;;;;;;;5.25;4.70;;;;;;;10.58;60.03;99087.00;3578772;40;20071;-63
2021/06/01 02:37:38;;;;;;;6.40;5.28;;;;;;;10.61;60.02;99089.28;3579004;40;20053;-62
2021/06/01 02:40:06;;;;;;;6.32;5.45;;;;;;;10.61;60.14;99080.50;3578645;40;20053;-62
2021/06/01 02:42:34;;;;;;;6.00;5.40;;;;;;;10.60;59.97;99077.03;3580243;40;20057;-64
2021/06/01 02:45:02;;;;;;;7.50;5.47;;;;;;;10.55;60.06;99082.06;3579678;40;20587;-62
2021/06/01 02:47:29;;;;;;;5.78;4.78;;;;;;;10.50;60.40;99084.44;3579041;40;20028;-62
2021/06/01 02:49:58;;;;;;;7.32;5.47;;;;;;;10.42;60.56;99081.91;3579567;40;20053;-62
2021/06/01 02:52:26;;;;;;;5.32;4.82;;;;;;;10.35;60.76;99084.47;3579332;40;20051;-62
2021/06/01 02:54:55;;;;;;;5.22;4.72;;;;;;;10.37;60.79;99085.13;3579082;40;20044;-62
2021/06/01 02:57:22;;;;;;;5.53;5.00;;;;;;;10.39;60.51;99083.09;3579251;40;20055;-62
2021/06/01 02:59:50;;;;;;;6.97;5.32;;;;;;;10.40;60.63;99078.63;3579175;40;20356;-62
2021/06/01 03:02:17;;;;;;;5.53;4.90;;;;;;;10.35;60.22;99079.19;3580214;40;20053;-62
2021/06/01 03:04:51;;;;;;;9.57;5.25;;;;;;;10.37;60.40;99086.94;3579471;40;20044;-62
2021/06/01 03:07:19;;;;;;;;;;;;;;;10.43;60.32;99088.00;3579926;40;20397;-62
2021/06/01 03:09:46;;;;;;;6.43;4.80;;;;;;;10.41;59.87;99080.28;3579241;40;19935;-62
2021/06/01 03:12:24;;;;;;;4.80;4.18;;;;;;;10.40;59.77;99071.50;3579600;40;20421;-62
2021/06/01 03:14:51;;;;;;;6.30;4.85;;;;;;;10.37;59.79;99081.66;3579187;40;20049;-61
2021/06/01 03:17:18;;;;;;;6.70;4.80;;;;;;;10.24;60.07;99076.97;3579295;40;20037;-63
2021/06/01 03:19:45;;;;;;;7.32;5.68;;;;;;;10.12;60.65;99074.00;3579111;40;20041;-62
2021/06/01 03:22:13;;;;;;;5.80;5.20;;;;;;;9.99;60.91;99076.44;3578938;40;20089;-62
2021/06/01 03:24:40;;;;;;;5.50;5.00;;;;;;;9.96;61.29;99070.69;3578967;40;20432;-61
2021/06/01 03:27:08;;;;;;;5.95;4.93;;;;;;;9.90;61.28;99070.41;3579002;40;20394;-62
2021/06/01 03:29:36;;;;;;;5.68;5.15;;;;;;;9.83;61.73;99073.97;3579071;40;20045;-62
2021/06/01 03:32:04;;;;;;;6.38;5.65;;;;;;;9.75;62.14;99080.13;3578080;40;20147;-62
2021/06/01 03:34:32;;;;;;;8.73;6.30;;;;;;;9.76;62.49;99075.72;3579221;40;20394;-62
2021/06/01 03:36:59;;;;;;;8.77;6.93;;;;;;;9.88;62.14;99072.44;3578649;40;20106;-61
2021/06/01 03:39:28;;;;;;;5.70;5.20;;;;;;;9.93;62.01;99079.81;3579034;40;20045;-62
2021/06/01 03:41:55;;;;;;;5.35;4.85;;;;;;;9.84;61.91;99068.53;3579020;40;20104;-62
2021/06/01 03:44:23;;;;;;;9.07;5.63;;;;;;;9.81;62.00;99081.25;3578772;40;20049;-61
2021/06/01 03:46:52;;;;;;;8.00;5.80;;;;;;;9.83;62.31;99081.88;3577926;40;20044;-61
2021/06/01 03:49:19;;;;;;;6.05;5.47;;;;;;;9.82;61.98;99081.06;3578901;40;20041;-62
2021/06/01 03:51:46;;;;;;;6.13;5.53;;;;;;;9.78;62.27;99079.78;3577825;40;20053;-62
2021/06/01 03:54:13;;;;;;;6.57;5.18;;;;;;;9.80;62.34;99077.00;3579027;40;20057;-62
2021/06/01 03:56:41;;;;;;;7.05;5.82;;;;;;;9.87;62.37;99077.88;3578911;40;20089;-62
2021/06/01 03:59:08;;;;;;;7.47;5.43;;;;;;;9.96;61.97;99073.31;3578508;40;20441;-62
2021/06/01 04:01:35;;;;;;;7.18;5.47;;;;;;;10.03;62.06;99077.72;3578794;40;20078;-62
2021/06/01 04:04:04;;;;;;;8.35;6.43;;;;;;;10.12;61.80;99075.78;3578655;40;20044;-62
2021/06/01 04:06:34;;;;;;;11.50;6.10;;;;;;;10.17;61.41;99076.91;3578595;40;20128;-62
2021/06/01 04:09:01;;;;;;;5.97;5.15;;;;;;;10.23;61.12;99075.34;3578295;40;20224;-62
2021/06/01 04:11:31;;;;;;;7.43;5.60;;;;;;;10.27;60.77;99083.75;3578425;40;20084;-62
2021/06/01 04:13:58;;;;;;;9.07;5.07;;;;;;;10.31;60.60;99077.91;3578088;40;20053;-62
2021/06/01 04:16:25;;;;;;;6.50;5.60;;;;;;;10.34;60.33;99074.91;3578793;40;20057;-62
2021/06/01 04:18:53;;;;;;;6.18;5.30;;;;;;;10.39;60.18;99069.06;3578306;40;20130;-62
2021/06/01 04:21:21;;;;;;;6.55;5.95;;;;;;;10.40;59.91;99070.69;3578663;40;20053;-62
2021/06/01 04:23:48;;;;;;;6.32;4.78;;;;;;;10.41;60.26;99072.34;3578972;40;20329;-61
2021/06/01 04:26:16;;;;;;;5.97;5.38;;;;;;;10.50;59.93;99073.06;3578883;40;20404;-62
2021/06/01 04:28:43;;;;;;;7.72;6.38;;;;;;;10.59;59.76;99070.13;3580147;40;20425;-61
2021/06/01 04:31:11;;;;;;;6.53;5.20;;;;;;;10.60;59.28;99071.75;3580694;40;20402;-63
2021/06/01 04:33:38;;;;;;;12.80;8.07;;;;;;;10.64;59.46;99069.56;3581047;40;20339;-61
2021/06/01 04:36:06;;;;;;;7.43;6.43;;;;;;;10.74;59.35;99067.44;3578801;40;20071;-61
2021/06/01 04:38:34;;;;;;;8.35;7.25;;;;;;;10.83;59.02;99068.97;3578382;40;20052;-61
2021/06/01 04:41:02;;;;;;;11.77;7.63;;;;;;;10.89;58.82;99065.53;3578536;40;20049;-61
2021/06/01 04:43:29;;;;;;;7.65;6.80;;;;;;;10.97;58.79;99061.97;3577811;40;20052;-61
2021/06/01 04:45:56;;;;;;;8.20;6.25;;;;;;;11.07;58.60;99061.66;3578693;40;20088;-61
2021/06/01 04:48:24;;;;;;;6.30;5.32;;;;;;;11.19;58.54;99060.16;3578448;40;20059;-61
2021/06/01 04:50:51;;;;;;;6.78;6.00;;;;;;;11.36;58.10;99058.06;3578578;40;20037;-61
2021/06/01 04:53:19;;;;;;;5.78;5.28;;;;;;;11.47;57.89;99060.19;3578467;40;20116;-62
2021/06/01 04:55:48;;;;;;;7.50;5.72;;;;;;;11.53;57.36;99045.34;3578738;40;20049;-62
2021/06/01 04:58:15;;;;;;;7.03;5.40;;;;;;;11.60;57.19;99051.53;3577426;40;20049;-61
2021/06/01 05:00:42;;;;;;;7.07;4.88;;;;;;;11.66;57.15;99054.19;3578589;40;20053;-61
2021/06/01 05:03:10;;;;;;;7.38;6.57;;;;;;;11.75;56.86;99059.34;3578804;40;20053;-62
2021/06/01 05:05:37;;;;;;;6.68;5.85;;;;;;;11.82;56.43;99047.78;3583595;40;20041;-62
2021/06/01 05:08:05;;;;;;;6.68;6.07;;;;;;;11.87;56.45;99055.16;3582104;40;20321;-62
2021/06/01 05:10:32;;;;;;;14.10;5.88;;;;;;;11.98;56.34;99057.28;3581821;40;20053;-62
2021/06/01 05:13:00;;;;;;;5.72;4.95;;;;;;;12.05;55.97;99060.78;3579125;40;20321;-62
2021/06/01 05:15:27;;;;;;;6.38;5.00;;;;;;;12.16;55.56;99062.06;3578575;40;20047;-62
2021/06/01 05:17:55;;;;;;;8.15;5.72;;;;;;;12.25;55.53;99065.38;3580141;40;20098;-62
2021/06/01 05:20:22;;;;;;;5.90;5.28;;;;;;;12.38;55.23;99063.59;3582200;40;20049;-62
2021/06/01 05:22:49;;;;;;;6.45;5.28;;;;;;;12.51;55.06;99062.84;3582083;40;20101;-62
2021/06/01 05:25:17;;;;;;;6.72;6.03;;;;;;;12.62;54.60;99067.56;3582755;40;20044;-62
2021/06/01 05:27:44;;;;;;;9.07;7.13;;;;;;;12.70;54.70;99058.63;3579815;40;20073;-61
2021/06/01 05:30:17;;;;;;;7.55;6.75;;;;;;;12.85;54.34;99063.75;3581695;40;20053;-64
2021/06/01 05:35:29;;;;;;;;;;;;;;;12.98;53.72;99047.88;3576527;40;20052;-61
2021/06/01 05:37:57;;;;;;;7.70;5.75;;;;;;;13.04;53.50;99047.03;3581028;40;19933;-61
2021/06/01 05:40:24;;;;;;;8.45;7.32;;;;;;;13.14;53.29;99050.13;3581457;40;20080;-61
2021/06/01 05:42:51;;;;;;;13.20;11.80;;;;;;;13.22;52.88;99046.44;3583320;40;20040;-62
2021/06/01 05:45:20;;;;;;;7.75;6.53;;;;;;;13.24;52.98;99046.28;3582894;40;20049;-63
2021/06/01 05:47:47;;;;;;;7.78;6.40;;;;;;;13.32;53.04;99043.44;3581067;40;20048;-63
2021/06/01 05:50:14;;;;;;;9.70;7.18;;;;;;;13.48;52.99;99044.84;3580595;40;20065;-63
2021/06/01 05:52:42;;;;;;;12.70;9.32;;;;;;;13.65;52.31;99045.25;3580241;40;20109;-62
2021/06/01 05:55:10;;;;;;;7.72;6.28;;;;;;;13.68;51.93;99047.50;3579860;40;20057;-61
2021/06/01 05:57:38;;;;;;;7.78;5.72;;;;;;;13.71;52.17;99042.56;3579809;40;20420;-62
2021/06/01 06:00:07;;;;;;;8.32;5.65;;;;;;;13.85;51.49;99040.72;3579913;40;20051;-62
2021/06/01 06:02:37;;;;;;;8.23;6.00;;;;;;;14.00;51.57;99046.63;3579315;40;20044;-62
2021/06/01 06:05:06;;;;;;;5.85;5.20;;;;;;;14.12;50.89;99034.31;3579737;40;20337;-62
2021/06/01 06:07:33;;;;;;;11.43;5.63;;;;;;;14.25;51.06;99040.59;3582360;40;20057;-61
2021/06/01 06:10:00;;;;;;;5.97;5.32;;;;;;;14.33;51.02;99041.19;3581703;40;20057;-61
2021/06/01 06:12:27;;;;;;;7.25;5.28;;;;;;;14.43;50.60;99045.22;3582529;40;20071;-61
2021/06/01 06:14:55;;;;;;;7.82;5.15;;;;;;;14.57;50.54;99029.03;3584399;40;20049;-62
2021/06/01 06:17:31;;;;;;;5.57;4.30;;;;;;;14.78;49.76;99027.88;3583644;40;20082;-62
2021/06/01 06:20:00;;;;;;;5.38;4.75;;;;;;;14.96;49.40;99040.47;3582203;40;20065;-61
2021/06/01 06:22:29;;;;;;;6.13;4.43;;;;;;;15.02;48.98;99034.28;3581974;40;20045;-62
2021/06/01 06:24:56;;;;;;;6.47;4.03;;;;;;;15.18;48.97;99026.78;3580874;40;20053;-63
2021/06/01 06:27:23;;;;;;;7.28;4.40;;;;;;;15.36;47.82;99034.84;3580704;40;20053;-62
2021/06/01 06:29:50;;;;;;;4.43;4.00;;;;;;;15.42;47.66;99038.47;3579910;40;20072;-62
2021/06/01 06:32:18;;;;;;;4.18;3.50;;;;;;;15.47;47.55;99035.97;3578361;40;20358;-63
2021/06/01 06:34:45;;;;;;;8.40;4.45;;;;;;;15.53;46.93;99037.78;3579013;40;20074;-63
2021/06/01 06:37:14;;;;;;;6.13;4.57;;;;;;;15.59;47.10;99042.22;3579480;40;20413;-63
2021/06/01 06:39:41;;;;;;;5.13;3.20;;;;;;;15.69;46.97;99037.25;3579448;40;20088;-62
2021/06/01 06:42:09;;;;;;;6.75;5.50;;;;;;;15.77;46.61;99041.47;3578805;40;20040;-63
2021/06/01 06:44:37;;;;;;;3.30;3.00;;;;;;;15.97;46.07;99041.28;3578306;40;20105;-63
2021/06/01 06:47:18;;;;;;;4.35;3.50;;;;;;;16.12;46.04;99030.22;3579065;40;20033;-63
2021/06/01 06:49:46;;;;;;;3.80;3.30;;;;;;;16.22;44.89;99030.53;3579545;40;20045;-63
2021/06/01 06:52:15;;;;;;;4.38;2.85;;;;;;;16.34;44.94;99018.88;3579671;40;20053;-63
2021/06/01 06:54:42;;;;;;;3.67;3.00;;;;;;;16.48;45.03;99016.03;3579835;40;20044;-62
2021/06/01 06:57:10;;;;;;;3.13;2.83;;;;;;;16.63;44.23;99015.63;3580550;40;20330;-63
2021/06/01 06:59:37;;;;;;;3.92;3.30;;;;;;;16.70;44.32;99013.69;3581474;40;20113;-62
2021/06/01 07:02:05;;;;;;;3.47;2.60;;;;;;;16.81;42.72;99011.06;3580967;40;20059;-63
2021/06/01 07:04:32;;;;;;;2.95;2.63;;;;;;;16.96;41.31;99002.66;3582371;40;20572;-63
2021/06/01 07:07:00;;;;;;;3.35;2.35;;;;;;;17.17;40.52;99003.97;3580558;40;20049;-62
2021/06/01 07:09:28;;;;;;;3.35;2.28;;;;;;;17.27;40.46;99004.22;3579829;40;20434;-62
2021/06/01 07:11:55;;;;;;;2.55;2.30;;;;;;;17.37;40.06;99010.84;3580014;40;20081;-62
2021/06/01 07:14:32;;;;;;;3.50;2.17;;;;;;;17.48;39.37;99016.19;3580658;40;20055;-62
2021/06/01 07:16:59;;;;;;;3.35;2.58;;;;;;;17.57;39.18;99016.66;3579604;40;20077;-62
2021/06/01 07:19:26;;;;;;;4.75;2.15;;;;;;;17.67;38.85;99016.06;3580400;40;20122;-62
2021/06/01 07:21:53;;;;;;;4.13;2.45;;;;;;;17.80;38.23;99005.97;3579343;40;20051;-62
2021/06/01 07:24:20;;;;;;;2.80;2.20;;;;;;;17.90;37.49;99005.38;3578883;40;20373;-63
2021/06/01 07:26:49;;;;;;;3.25;2.50;;;;;;;17.96;38.21;99000.94;3579109;40;20347;-63
2021/06/01 07:29:16;;;;;;;4.13;2.60;;;;;;;18.06;37.71;99006.50;3578254;40;20318;-63
2021/06/01 07:31:44;;;;;;;2.45;2.17;;;;;;;18.10;37.47;99005.00;3578959;40;20048;-63
2021/06/01 07:34:12;;;;;;;2.35;2.13;;;;;;;18.15;37.60;98996.25;3578904;40;20310;-63
2021/06/01 07:36:39;;;;;;;5.10;2.13;;;;;;;18.34;36.87;98997.72;3578853;40;20174;-63
2021/06/01 07:39:08;;;;;;;4.35;2.38;;;;;;;18.56;35.68;98995.97;3578696;40;20115;-63
2021/06/01 07:41:35;;;;;;;1.92;1.83;;;;;;;18.55;35.44;98997.03;3578967;40;20049;-63
2021/06/01 07:44:05;;;;;;;4.07;2.15;;;;;;;18.66;35.36;98991.88;3579048;40;20072;-63
2021/06/01 07:46:33;;;;;;;2.53;2.08;;;;;;;18.77;35.39;98985.66;3577309;40;20045;-63
2021/06/01 07:49:01;;;;;;;2.65;2.45;;;;;;;18.85;34.74;98987.13;3578718;40;20060;-63
2021/06/01 07:51:28;;;;;;;3.15;2.72;;;;;;;18.94;34.73;98986.53;3577920;40;20041;-63
2021/06/01 07:53:57;;;;;;;4.22;2.92;;;;;;;19.04;34.09;98984.00;3578667;40;20333;-64
2021/06/01 07:56:25;;;;;;;2.85;2.65;;;;;;;19.08;34.09;98978.97;3578751;40;20126;-64
2021/06/01 07:58:52;;;;;;;3.03;2.20;;;;;;;19.20;33.56;98970.84;3578366;40;20150;-63
2021/06/01 08:01:21;;;;;;;3.20;2.17;;;;;;;19.33;33.02;98967.81;3578997;40;20044;-63
2021/06/01 08:03:48;;;;;;;3.90;1.88;;;;;;;19.46;32.82;98972.03;3578540;40;20137;-63
2021/06/01 08:06:16;;;;;;;2.58;1.95;;;;;;;19.43;32.11;98965.31;3578743;40;20382;-63
2021/06/01 08:08:43;;;;;;;5.57;1.90;;;;;;;19.51;32.30;98964.88;3578799;40;20056;-63
2021/06/01 08:11:10;;;;;;;2.03;1.90;;;;;;;19.60;31.43;98959.91;3578754;40;20051;-63
2021/06/01 08:13:37;;;;;;;2.72;1.90;;;;;;;19.66;31.53;98958.94;3577956;40;20298;-63
2021/06/01 08:16:05;;;;;;;3.33;1.92;;;;;;;19.64;31.17;98963.75;3577526;40;20120;-63
2021/06/01 08:18:37;;;;;;;10.95;1.92;;;;;;;19.68;30.70;98950.66;3577349;40;20481;-63
2021/06/01 08:21:08;;;;;;;1.85;1.73;;;;;;;19.76;30.76;98956.41;3577817;40;20056;-63
2021/06/01 08:23:36;;;;;;;2.08;1.98;;;;;;;19.75;30.75;98943.22;3578357;40;20354;-63
2021/06/01 08:26:04;;;;;;;4.03;2.00;;;;;;;19.84;29.96;98944.44;3578642;40;20676;-63
2021/06/01 08:28:31;;;;;;;2.65;2.03;;;;;;;19.91;29.80;98949.59;3578361;40;20055;-63
2021/06/01 08:30:58;;;;;;;6.75;2.30;;;;;;;19.91;29.63;98938.88;3578601;40;20041;-63
2021/06/01 08:33:25;;;;;;;2.05;1.85;;;;;;;19.95;29.80;98954.22;3578612;40;20051;-63
2021/06/01 08:35:54;;;;;;;1.88;1.77;;;;;;;20.02;28.70;98936.06;3578607;40;20052;-63
2021/06/01 08:38:22;;;;;;;1.83;1.70;;;;;;;20.09;28.27;98941.25;3578182;40;20403;-62
2021/06/01 08:40:51;;;;;;;2.70;1.63;;;;;;;20.16;28.07;98946.41;3578450;40;20085;-63
2021/06/01 08:43:22;;;;;;;3.03;1.77;;;;;;;20.25;27.97;98947.59;3579087;40;20051;-63
2021/06/01 08:45:52;;;;;;;1.83;1.30;;;;;;;20.28;27.23;98950.56;3578515;40;20321;-63
2021/06/01 08:48:20;;;;;;;1.60;1.50;;;;;;;20.37;27.50;98942.06;3578217;40;20410;-64
2021/06/01 08:50:49;;;;;;;3.42;2.03;;;;;;;20.42;27.31;98944.81;3578583;40;20077;-63
2021/06/01 08:53:19;;;;;;;2.38;1.90;;;;;;;20.53;26.83;98952.75;3577535;40;20060;-63
2021/06/01 08:55:48;;;;;;;3.65;2.00;;;;;;;20.55;27.09;98955.19;3578343;40;20052;-63
2021/06/01 08:58:17;;;;;;;3.92;2.00;;;;;;;20.60;27.30;98955.22;3578357;40;20049;-63
2021/06/01 09:00:45;;;;;;;2.45;1.95;;;;;;;20.71;27.38;98948.88;3579896;40;20446;-63
2021/06/01 09:03:17;;;;;;;3.63;1.90;;;;;;;20.80;26.59;98951.91;3579649;40;20392;-63
2021/06/01 09:06:07;;;;;;;5.85;2.10;;;;;;;20.71;27.33;98954.25;3579605;40;20076;-63
2021/06/01 09:08:45;;;;;;;2.10;1.90;;;;;;;20.80;27.56;98945.72;3579257;40;20082;-63
2021/06/01 09:11:18;;;;;;;2.95;1.98;;;;;;;20.80;27.26;98930.41;3579548;40;20048;-63
2021/06/01 09:14:15;;;;;;;4.03;2.15;;;;;;;20.74;27.26;98934.13;3578758;40;20048;-63
2021/06/01 09:22:29;;;;;;;5.35;3.10;;;;;;;20.87;25.96;98919.47;3579648;40;20088;-63
2021/06/01 09:25:03;;;;;;;2.70;2.20;;;;;;;20.92;25.78;98927.56;3579829;40;20402;-63
2021/06/01 09:27:40;;;;;;;3.92;2.58;;;;;;;21.02;25.58;98924.94;3579459;40;20038;-63
2021/06/01 09:30:09;;;;;;;2.85;1.80;;;;;;;21.14;25.21;98919.38;3579610;40;20061;-63
2021/06/01 09:32:42;;;;;;;2.78;1.67;;;;;;;21.23;25.81;98917.84;3580006;40;20045;-63
2021/06/01 09:35:11;;;;;;;2.17;1.98;;;;;;;21.32;25.17;98927.06;3578709;40;20061;-62
2021/06/01 09:37:38;;;;;;;3.22;1.70;;;;;;;21.43;24.47;98914.47;3579372;40;20347;-63
2021/06/01 09:40:17;;;;;;;4.18;1.60;;;;;;;21.48;23.59;98911.84;3579564;40;20104;-63
2021/06/01 09:42:46;;;;;;;2.47;1.77;;;;;;;21.42;24.22;98910.97;3580022;40;20056;-63
2021/06/01 09:45:16;;;;;;;2.90;1.98;;;;;;;21.50;24.33;98907.00;3580235;40;20425;-63
2021/06/01 09:47:54;;;;;;;3.55;1.90;;;;;;;21.39;24.68;98900.78;3579243;40;20080;-62
2021/06/01 09:50:32;;;;;;;2.00;1.80;;;;;;;21.49;25.03;98902.69;3579964;40;20064;-63
2021/06/01 09:53:03;;;;;;;2.50;1.95;;;;;;;21.57;24.55;98901.38;3579966;40;20048;-62
2021/06/01 09:55:35;;;;;;;3.35;1.90;;;;;;;21.61;24.61;98900.59;3579661;40;20329;-62
2021/06/01 09:58:05;;;;;;;2.22;2.03;;;;;;;21.68;24.19;98895.78;3579422;40;20406;-62
2021/06/01 10:00:33;;;;;;;4.22;2.15;;;;;;;21.65;24.38;98895.50;3579376;40;20473;-63
2021/06/01 10:03:03;;;;;;;1.98;1.88;;;;;;;21.61;24.49;98892.53;3580070;40;20052;-63
2021/06/01 10:05:31;;;;;;;2.67;2.10;;;;;;;21.61;24.83;98889.03;3580821;40;20053;-62
2021/06/01 10:08:00;;;;;;;2.15;1.95;;;;;;;21.71;25.54;98899.81;3580547;40;20085;-62
2021/06/01 10:10:30;;;;;;;3.72;2.30;;;;;;;21.77;25.18;98885.34;3580096;40;20037;-61
2021/06/01 10:13:00;;;;;;;2.58;1.77;;;;;;;21.86;24.88;98878.38;3580198;40;20061;-62
2021/06/01 10:15:29;;;;;;;5.78;1.98;;;;;;;21.99;24.16;98885.13;3580451;40;20071;-63
2021/06/01 10:18:01;;;;;;;2.15;1.88;;;;;;;22.08;24.31;98888.91;3580095;40;20126;-64
2021/06/01 10:20:31;;;;;;;4.40;1.90;;;;;;;22.16;24.74;98885.72;3580951;40;20056;-63
2021/06/01 10:22:59;;;;;;;4.15;1.70;;;;;;;22.22;24.13;98879.28;3580882;40;20053;-62
2021/06/01 10:25:26;;;;;;;3.83;2.00;;;;;;;22.34;24.10;98875.56;3580318;40;20049;-63
2021/06/01 10:27:59;;;;;;;2.55;1.80;;;;;;;22.37;24.06;98872.31;3580038;40;20041;-63
2021/06/01 10:30:29;;;;;;;3.85;1.77;;;;;;;22.40;24.22;98877.97;3580724;40;20053;-64
2021/06/01 10:33:00;;;;;;;2.25;1.90;;;;;;;22.45;24.14;98875.28;3579896;40;20084;-63
2021/06/01 10:35:33;;;;;;;2.35;1.80;;;;;;;22.44;24.36;98872.84;3579311;40;20053;-64
2021/06/01 10:50:33;;;;;;;2.00;1.80;;;;;;;22.74;23.56;98853.22;3581107;40;20053;-64
2021/06/01 10:53:07;;;;;;;2.17;1.85;;;;;;;22.74;24.20;98851.31;3581913;40;20052;-64
2021/06/01 10:55:55;;;;;;;2.10;1.80;;;;;;;22.92;24.20;98841.88;3582486;40;20033;-64
2021/06/01 10:58:27;;;;;;;2.53;2.00;;;;;;;22.99;24.26;98844.31;3582760;40;20061;-64
2021/06/01 11:04:11;;;;;;;2.22;1.95;;;;;;;22.99;24.24;98845.09;3581974;40;20061;-63
2021/06/01 11:09:51;;;;;;;4.95;2.10;;;;;;;23.10;24.53;98835.09;3567895;40;20259;-64
2021/06/01 11:12:41;;;;;;;5.13;2.10;;;;;;;23.11;25.10;98830.53;3581278;40;20053;-64
2021/06/01 11:15:32;;;;;;;2.13;2.00;;;;;;;23.02;25.34;98829.44;3580107;40;20112;-63
2021/06/01 11:18:35;;;;;;;2.53;1.85;;;;;;;23.08;24.55;98821.09;3579784;40;20032;-64
2021/06/01 11:21:20;;;;;;;1.95;1.85;;;;;;;23.16;23.71;98817.03;3579940;40;20053;-64
2021/06/01 11:33:15;;;;;;;4.32;2.40;;;;;;;23.16;24.63;98815.13;3579453;40;20044;-64
2021/06/01 11:35:45;;;;;;;3.15;2.00;;;;;;;23.22;24.07;98816.72;3579799;40;20107;-64
2021/06/01 11:38:21;;;;;;;3.33;2.58;;;;;;;23.22;24.18;98821.31;3578817;40;20045;-63
2021/06/01 11:41:05;;;;;;;4.43;2.30;;;;;;;23.29;23.90;98807.53;3577942;40;20142;-63
2021/06/01 11:43:32;;;;;;;4.07;1.95;;;;;;;23.28;24.28;98814.03;3579169;40;20033;-64
2021/06/01 11:51:33;;;;;;;3.58;2.00;;;;;;;23.51;23.46;98799.06;3578906;40;20049;-63
2021/06/01 11:54:05;;;;;;;2.17;1.98;;;;;;;23.34;23.97;98794.03;3577856;40;20099;-63
2021/06/01 11:56:53;;;;;;;3.13;1.98;;;;;;;23.41;23.63;98792.66;3579676;40;20351;-63
2021/06/01 12:02:13;;;;;;;4.57;2.20;;;;;;;23.83;23.16;98790.56;3579168;40;20056;-63
2021/06/01 12:05:08;;;;;;;2.97;2.10;;;;;;;23.82;23.41;98781.69;3579739;40;20068;-63
2021/06/01 12:13:44;;;;;;;2.47;1.90;;;;;;;23.62;24.30;98769.06;3578922;40;20067;-63
2021/06/01 12:19:01;;;;;;;4.57;2.22;;;;;;;23.84;24.30;98767.88;3578658;40;20406;-64
2021/06/01 12:21:33;;;;;;;3.72;2.10;;;;;;;23.80;24.65;98783.03;3578671;40;20049;-63
2021/06/01 12:24:03;;;;;;;5.07;2.28;;;;;;;23.85;24.47;98773.03;3579039;40;20080;-63
2021/06/01 12:26:40;;;;;;;5.20;2.35;;;;;;;24.00;24.09;98769.41;3577516;40;20047;-63
2021/06/01 12:32:06;;;;;;;6.55;4.25;;;;;;;24.29;23.93;98764.06;3578794;40;20333;-63
2021/06/01 12:34:47;;;;;;;4.25;2.90;;;;;;;24.41;23.84;98767.22;3578525;40;20045;-63
2021/06/01 12:43:12;;;;;;;4.07;3.38;;;;;;;24.63;23.77;98765.94;3578449;40;20088;-63
2021/06/01 12:46:03;;;;;;;3.45;3.08;;;;;;;24.67;24.14;98754.25;3578629;40;20517;-63
2021/06/01 13:20:55;;;;;;;3.20;2.83;;;;;;;25.45;22.77;98717.91;3578303;40;20053;-63
2021/06/01 13:32:08;;;;;;;3.88;2.13;;;;;;;25.26;22.09;98703.56;3578616;40;20084;-63